Time;durP1;ratioP1;P1;durP2;ratioP2;P2;SDS_P1;SDS_P2;PMS_P1;PMS_P2;Temp;Humidity;BMP_temperature;BMP_pressure;BME280_temperature;BME280_humidity;BME280_pressure;Samples;Min_cycle;Max_cycle;Signal;HPM_P1;HPM_P2
2023/04/21 00:01:41;;;;;;;9.68;7.28;;;6.00;97.40;;;;;;5095328;28;20185;-68
2023/04/21 00:04:14;;;;;;;12.95;9.60;;;6.00;97.60;;;;;;5095785;28;20267;-68
2023/04/21 00:06:44;;;;;;;13.43;8.82;;;6.10;97.80;;;;;;5095383;28;20189;-68
2023/04/21 00:09:13;;;;;;;9.27;8.15;;;6.10;97.90;;;;;;5095251;28;20197;-68
2023/04/21 00:11:43;;;;;;;10.80;7.75;;;6.10;98.00;;;;;;5095597;28;20212;-68
2023/04/21 00:14:10;;;;;;;10.07;9.00;;;6.10;97.90;;;;;;5095242;28;20544;-68
2023/04/21 00:16:38;;;;;;;11.40;9.48;;;6.10;97.70;;;;;;5130775;27;20262;-68
2023/04/21 00:19:06;;;;;;;13.55;10.10;;;6.10;97.70;;;;;;5135793;27;20714;-68
2023/04/21 00:21:36;;;;;;;13.48;8.65;;;6.00;97.60;;;;;;5136239;27;20282;-68
2023/04/21 00:24:09;;;;;;;12.40;8.80;;;6.00;97.70;;;;;;5135486;27;20250;-68
2023/04/21 00:26:38;;;;;;;8.93;8.02;;;6.00;97.80;;;;;;5136150;27;20188;-68
2023/04/21 00:29:06;;;;;;;10.38;8.18;;;6.10;97.80;;;;;;5135889;27;20191;-68
2023/04/21 00:31:35;;;;;;;11.32;8.90;;;6.10;97.90;;;;;;5135951;27;20191;-68
2023/04/21 00:34:04;;;;;;;9.57;7.40;;;6.00;97.50;;;;;;5135399;27;20196;-68
2023/04/21 00:36:34;;;;;;;10.52;7.35;;;6.00;97.70;;;;;;5135923;27;20195;-67
2023/04/21 00:39:02;;;;;;;13.45;9.15;;;6.00;97.80;;;;;;5135549;27;20673;-67
2023/04/21 00:41:33;;;;;;;13.18;9.98;;;6.00;97.70;;;;;;5135724;27;20767;-66
2023/04/21 00:44:06;;;;;;;10.38;8.85;;;6.00;97.50;;;;;;5135473;27;20258;-67
2023/04/21 00:46:34;;;;;;;9.57;8.10;;;6.00;97.70;;;;;;5115152;28;20210;-67
2023/04/21 00:49:04;;;;;;;11.55;8.98;;;6.00;97.60;;;;;;5115106;28;20196;-67
2023/04/21 00:51:34;;;;;;;10.52;8.55;;;6.00;97.80;;;;;;5135368;27;20191;-67
2023/04/21 00:54:05;;;;;;;14.57;9.07;;;6.00;97.60;;;;;;5135373;27;20709;-67
2023/04/21 00:56:37;;;;;;;9.95;8.27;;;6.10;97.70;;;;;;5114127;28;20543;-67
2023/04/21 00:59:06;;;;;;;11.75;8.85;;;6.10;97.60;;;;;;5115283;28;20291;-67
2023/04/21 01:01:35;;;;;;;12.57;10.10;;;6.00;97.50;;;;;;5135094;27;20202;-67
2023/04/21 01:04:04;;;;;;;13.02;8.57;;;6.10;97.70;;;;;;5135158;27;20216;-67
2023/04/21 01:06:44;;;;;;;10.00;7.85;;;6.10;97.80;;;;;;5135425;27;20223;-67
2023/04/21 01:09:12;;;;;;;11.73;8.40;;;6.10;97.90;;;;;;5135348;27;20672;-67
2023/04/21 01:11:39;;;;;;;12.73;8.82;;;6.10;97.90;;;;;;5114896;28;20198;-67
2023/04/21 01:14:08;;;;;;;10.60;7.57;;;6.10;97.50;;;;;;5124062;27;20556;-67
2023/04/21 01:16:38;;;;;;;10.07;7.88;;;6.10;97.40;;;;;;5134491;27;20219;-67
2023/04/21 01:19:07;;;;;;;15.55;8.00;;;6.10;97.30;;;;;;5135009;27;20574;-68
2023/04/21 01:21:41;;;;;;;9.20;8.18;;;6.10;97.30;;;;;;5135401;27;20188;-68
2023/04/21 01:24:11;;;;;;;9.73;8.27;;;6.10;97.20;;;;;;5134134;27;20639;-68
2023/04/21 01:26:41;;;;;;;11.07;9.00;;;6.10;97.10;;;;;;5135015;27;20740;-68
2023/04/21 01:29:11;;;;;;;8.60;6.45;;;6.00;97.30;;;;;;5134679;27;20184;-67
2023/04/21 01:31:42;;;;;;;10.07;8.10;;;6.00;97.50;;;;;;5135065;27;20555;-67
2023/04/21 01:34:11;;;;;;;9.20;7.63;;;6.00;97.30;;;;;;5134703;27;20594;-68
2023/04/21 01:36:40;;;;;;;10.95;7.70;;;6.00;97.40;;;;;;5134835;27;20225;-67
2023/04/21 01:39:08;;;;;;;9.70;8.70;;;6.00;97.40;;;;;;5134061;27;20263;-67
2023/04/21 01:41:37;;;;;;;11.57;8.55;;;6.00;97.30;;;;;;5134943;27;20192;-67
2023/04/21 01:44:09;;;;;;;8.90;7.43;;;6.00;97.50;;;;;;5133963;27;20302;-68
2023/04/21 01:46:47;;;;;;;8.88;6.75;;;5.90;97.70;;;;;;5134785;27;20195;-67
2023/04/21 01:49:15;;;;;;;9.38;7.60;;;6.00;97.70;;;;;;5134353;27;20190;-67
2023/04/21 01:51:43;;;;;;;9.32;7.45;;;6.00;97.40;;;;;;5134586;27;20203;-67
2023/04/21 01:54:15;;;;;;;9.65;7.05;;;5.90;97.40;;;;;;5134185;27;20183;-67
2023/04/21 01:56:42;;;;;;;8.02;6.28;;;5.90;97.50;;;;;;5134767;27;20538;-68
2023/04/21 01:59:12;;;;;;;8.80;7.47;;;5.90;97.50;;;;;;5134025;27;20194;-68
2023/04/21 02:01:39;;;;;;;9.50;7.82;;;5.90;97.40;;;;;;5134543;27;20217;-67
2023/04/21 02:04:07;;;;;;;10.25;7.60;;;5.90;97.40;;;;;;5133649;27;20233;-67
2023/04/21 02:06:37;;;;;;;9.55;7.65;;;5.90;97.30;;;;;;5134338;27;20199;-68
2023/04/21 02:09:06;;;;;;;10.05;7.45;;;5.90;97.40;;;;;;5133377;27;20195;-68
2023/04/21 02:11:36;;;;;;;12.38;9.57;;;5.80;97.60;;;;;;5134094;27;20226;-67
2023/04/21 02:14:04;;;;;;;11.40;6.90;;;5.80;97.80;;;;;;5134257;27;20184;-67
2023/04/21 02:16:35;;;;;;;10.65;8.30;;;5.90;97.90;;;;;;5134405;27;20218;-67
2023/04/21 02:19:05;;;;;;;11.70;8.38;;;5.90;98.00;;;;;;5133810;27;20266;-69
2023/04/21 02:21:41;;;;;;;11.18;9.02;;;5.90;98.00;;;;;;5134046;27;20226;-67
2023/04/21 02:24:10;;;;;;;9.80;8.45;;;6.00;98.10;;;;;;5133373;27;20260;-67
2023/04/21 02:26:38;;;;;;;10.48;8.75;;;6.00;98.20;;;;;;5133795;27;20187;-67
2023/04/21 02:29:07;;;;;;;9.98;8.15;;;6.00;98.20;;;;;;5133517;27;20186;-68
2023/04/21 02:31:37;;;;;;;10.07;8.32;;;6.10;98.20;;;;;;5132765;27;20702;-68
2023/04/21 02:34:05;;;;;;;10.57;8.43;;;6.10;98.20;;;;;;5133247;27;20183;-67
2023/04/21 02:36:32;;;;;;;11.00;9.05;;;6.10;98.20;;;;;;5133108;27;20190;-67
2023/04/21 02:38:59;;;;;;;12.50;9.40;;;6.10;98.20;;;;;;5133689;27;20192;-68
2023/04/21 02:41:28;;;;;;;11.77;8.13;;;6.10;98.20;;;;;;5132731;27;20194;-67
2023/04/21 02:43:56;;;;;;;10.70;8.63;;;6.10;98.20;;;;;;5133509;27;20211;-67
2023/04/21 02:46:25;;;;;;;10.63;8.82;;;6.10;98.10;;;;;;5133480;27;20188;-68
2023/04/21 02:48:55;;;;;;;9.90;8.30;;;6.20;98.10;;;;;;5133717;27;20264;-68
2023/04/21 02:51:24;;;;;;;10.93;7.72;;;6.20;98.00;;;;;;5133096;27;20282;-67
2023/04/21 02:53:51;;;;;;;10.07;7.65;;;6.10;98.00;;;;;;5133455;27;20634;-68
2023/04/21 02:56:19;;;;;;;11.48;7.90;;;6.10;97.90;;;;;;5133147;28;20202;-68
2023/04/21 02:58:48;;;;;;;9.90;7.63;;;6.10;97.90;;;;;;5133450;28;20236;-67
2023/04/21 03:01:18;;;;;;;9.02;7.47;;;6.10;97.90;;;;;;5132933;28;20194;-68
2023/04/21 03:03:48;;;;;;;10.10;7.93;;;6.10;97.80;;;;;;5133093;28;20192;-68
2023/04/21 03:06:21;;;;;;;10.18;7.75;;;6.10;97.60;;;;;;5133013;28;20207;-68
2023/04/21 03:08:48;;;;;;;9.90;8.15;;;6.10;97.60;;;;;;5132787;28;20192;-67
2023/04/21 03:11:24;;;;;;;9.07;8.10;;;6.10;97.40;;;;;;5132591;28;20271;-68
2023/04/21 03:13:58;;;;;;;10.20;7.95;;;6.00;97.30;;;;;;5133510;28;20226;-67
2023/04/21 03:16:26;;;;;;;10.73;9.30;;;6.00;97.60;;;;;;5132466;28;20291;-68
2023/04/21 03:18:55;;;;;;;11.57;8.73;;;6.00;97.50;;;;;;5135212;27;20191;-67
2023/04/21 03:21:23;;;;;;;11.70;8.77;;;5.90;97.40;;;;;;5137215;27;20180;-67
2023/04/21 03:23:50;;;;;;;9.38;8.27;;;5.90;97.50;;;;;;5137880;27;20557;-68
2023/04/21 03:26:17;;;;;;;11.32;10.13;;;5.90;97.60;;;;;;5137073;27;20219;-67
2023/04/21 03:28:46;;;;;;;12.45;9.38;;;5.90;97.70;;;;;;5137194;27;20196;-68
2023/04/21 03:31:19;;;;;;;10.63;8.50;;;5.90;97.90;;;;;;5137155;27;20185;-68
2023/04/21 03:33:46;;;;;;;10.30;9.20;;;5.90;98.00;;;;;;5136979;27;20192;-68
2023/04/21 03:36:16;;;;;;;9.45;7.93;;;5.90;98.00;;;;;;5136820;27;20537;-68
2023/04/21 03:38:43;;;;;;;10.23;8.25;;;5.90;98.00;;;;;;5136764;27;20267;-68
2023/04/21 03:41:16;;;;;;;9.00;7.47;;;5.90;97.90;;;;;;5136447;27;20241;-68
2023/04/21 03:43:44;;;;;;;9.50;7.88;;;5.80;97.80;;;;;;5126537;27;20266;-68
2023/04/21 03:46:19;;;;;;;10.05;7.70;;;5.80;98.00;;;;;;5137053;27;20559;-68
2023/04/21 03:48:52;;;;;;;10.07;8.50;;;5.70;98.00;;;;;;5136804;27;20179;-67
2023/04/21 03:51:21;;;;;;;10.10;7.65;;;5.70;97.80;;;;;;5136153;27;20179;-68
2023/04/21 03:53:54;;;;;;;10.00;8.63;;;5.70;97.50;;;;;;5136325;27;20553;-67
2023/04/21 03:56:21;;;;;;;10.15;7.70;;;5.60;97.40;;;;;;5136470;27;20237;-67
2023/04/21 03:58:51;;;;;;;12.95;9.20;;;5.60;97.60;;;;;;5136353;27;20195;-67
2023/04/21 04:01:20;;;;;;;11.15;9.27;;;5.60;97.60;;;;;;5136087;27;20267;-68
2023/04/21 04:03:51;;;;;;;10.43;7.82;;;5.60;97.60;;;;;;5136652;27;20226;-69
2023/04/21 04:06:22;;;;;;;10.70;8.63;;;5.50;97.50;;;;;;5136087;27;20229;-67
2023/04/21 04:08:50;;;;;;;9.35;8.32;;;5.50;97.70;;;;;;5136535;27;20248;-67
2023/04/21 04:11:23;;;;;;;8.63;6.80;;;5.50;97.80;;;;;;5135501;27;20274;-68
2023/04/21 04:13:52;;;;;;;9.30;7.38;;;5.40;97.60;;;;;;5136217;27;20188;-67
2023/04/21 04:16:28;;;;;;;8.75;6.95;;;5.40;97.50;;;;;;5136355;27;20306;-67
2023/04/21 04:18:56;;;;;;;10.70;8.57;;;5.30;97.40;;;;;;5136196;27;20240;-67
2023/04/21 04:21:24;;;;;;;11.27;8.32;;;5.30;97.70;;;;;;5136111;27;20222;-68
2023/04/21 04:23:52;;;;;;;10.70;8.85;;;5.30;97.80;;;;;;5136205;27;20199;-67
2023/04/21 04:26:23;;;;;;;11.35;8.43;;;5.30;97.70;;;;;;5135430;27;20279;-67
2023/04/21 04:28:51;;;;;;;12.60;8.90;;;5.20;97.60;;;;;;5136574;27;20176;-67
2023/04/21 04:31:21;;;;;;;9.63;7.97;;;5.20;97.70;;;;;;5134575;27;20211;-67
2023/04/21 04:33:50;;;;;;;10.35;9.25;;;5.10;98.10;;;;;;5136226;27;20191;-67
2023/04/21 04:36:27;;;;;;;9.65;7.57;;;5.10;97.70;;;;;;5135403;27;20240;-67
2023/04/21 04:39:00;;;;;;;9.18;7.20;;;5.10;97.60;;;;;;5135772;27;20278;-67
2023/04/21 04:41:32;;;;;;;10.70;8.65;;;5.10;97.80;;;;;;5135384;27;20678;-67
2023/04/21 04:43:59;;;;;;;10.13;8.30;;;5.20;97.90;;;;;;5135818;27;20252;-67
2023/04/21 04:46:30;;;;;;;12.07;9.00;;;5.20;97.90;;;;;;5135682;27;20215;-67
2023/04/21 04:48:59;;;;;;;8.88;7.35;;;5.10;97.80;;;;;;5135588;27;20187;-68
2023/04/21 04:51:29;;;;;;;11.55;8.25;;;5.20;97.90;;;;;;5135121;27;20649;-67
2023/04/21 04:53:56;;;;;;;9.60;8.60;;;5.20;98.00;;;;;;5135484;27;20191;-68
2023/04/21 04:56:23;;;;;;;10.65;8.75;;;5.20;98.20;;;;;;5135269;27;20180;-68
2023/04/21 04:58:53;;;;;;;11.82;8.32;;;5.20;98.10;;;;;;5135573;27;20248;-67
2023/04/21 05:01:21;;;;;;;11.85;8.30;;;5.30;97.90;;;;;;5135060;27;20187;-67
2023/04/21 05:03:58;;;;;;;10.95;8.27;;;5.30;97.80;;;;;;5131339;27;20198;-68
2023/04/21 05:06:28;;;;;;;8.43;7.43;;;5.30;97.80;;;;;;5120817;27;20246;-68
2023/04/21 05:08:58;;;;;;;11.63;8.75;;;5.30;97.50;;;;;;5125926;27;20187;-68
2023/04/21 05:11:26;;;;;;;10.90;8.10;;;5.30;97.30;;;;;;5125767;27;20722;-68
2023/04/21 05:13:59;;;;;;;9.02;7.55;;;5.30;97.50;;;;;;5122339;27;20176;-68
2023/04/21 05:16:29;;;;;;;11.05;8.60;;;5.30;97.40;;;;;;5113836;27;20216;-68
2023/04/21 05:19:01;;;;;;;15.60;9.85;;;5.40;97.60;;;;;;5124113;27;20188;-68
2023/04/21 05:21:33;;;;;;;12.45;9.95;;;5.50;97.80;;;;;;5131073;27;20199;-68
2023/04/21 05:24:02;;;;;;;9.77;7.60;;;5.60;97.90;;;;;;5127314;27;20520;-67
2023/04/21 05:26:35;;;;;;;9.65;8.13;;;5.70;97.90;;;;;;5128103;27;20229;-68
2023/04/21 05:29:03;;;;;;;13.15;8.60;;;5.80;97.80;;;;;;5134570;27;20195;-68
2023/04/21 05:31:33;;;;;;;10.57;7.55;;;5.80;97.60;;;;;;5133787;27;20283;-68
2023/04/21 05:34:14;;;;;;;11.32;7.97;;;5.90;97.50;;;;;;5133931;27;20179;-68
2023/04/21 05:36:47;;;;;;;12.05;8.70;;;5.90;97.30;;;;;;5134061;27;20722;-68
2023/04/21 05:39:15;;;;;;;15.00;10.45;;;6.00;97.40;;;;;;5134633;27;20217;-68
2023/04/21 05:41:43;;;;;;;13.98;11.00;;;6.00;97.30;;;;;;5133687;27;20191;-67
2023/04/21 05:44:16;;;;;;;11.77;10.25;;;6.10;97.10;;;;;;5127549;27;20266;-68
2023/04/21 05:46:46;;;;;;;15.43;11.07;;;6.20;97.10;;;;;;5115904;27;20314;-68
2023/04/21 05:49:15;;;;;;;14.23;10.10;;;6.30;97.00;;;;;;5128761;27;20196;-68
2023/04/21 05:51:47;;;;;;;12.80;9.02;;;6.40;96.80;;;;;;5112381;27;20218;-68
2023/04/21 05:54:15;;;;;;;11.50;8.52;;;6.50;96.80;;;;;;5116083;27;20192;-69
2023/04/21 05:56:50;;;;;;;13.15;7.78;;;6.50;96.70;;;;;;5121225;27;20184;-67
2023/04/21 05:59:18;;;;;;;10.95;7.63;;;6.60;96.20;;;;;;5113417;27;20671;-68
2023/04/21 06:01:51;;;;;;;11.35;8.50;;;6.70;95.90;;;;;;5113263;27;20223;-68
2023/04/21 06:04:18;;;;;;;12.30;9.07;;;6.80;95.90;;;;;;5119034;27;20183;-68
2023/04/21 06:06:51;;;;;;;12.25;9.65;;;6.90;95.80;;;;;;5131905;27;20554;-68
2023/04/21 06:09:35;;;;;;;11.52;9.40;;;6.90;95.70;;;;;;5128972;27;20291;-68
2023/04/21 06:12:07;;;;;;;12.25;8.75;;;6.90;95.50;;;;;;5132648;27;20238;-68
2023/04/21 06:14:43;;;;;;;10.68;9.00;;;7.00;96.10;;;;;;5124146;27;20199;-68
2023/04/21 06:17:10;;;;;;;10.70;9.27;;;7.10;96.10;;;;;;5112308;27;20599;-68
2023/04/21 06:19:40;;;;;;;11.52;9.82;;;7.20;95.90;;;;;;5125238;27;20200;-68
2023/04/21 06:22:12;;;;;;;11.00;9.57;;;7.30;95.90;;;;;;5130352;27;20183;-69
2023/04/21 06:24:44;;;;;;;12.93;9.45;;;7.40;95.80;;;;;;5128437;27;20207;-68
2023/04/21 06:27:12;;;;;;;13.23;9.35;;;7.60;95.30;;;;;;5132433;27;20192;-68
2023/04/21 06:29:43;;;;;;;10.05;8.30;;;7.70;94.90;;;;;;5113660;27;20577;-69
2023/04/21 06:32:18;;;;;;;11.00;9.27;;;7.80;94.80;;;;;;5114432;27;20283;-68
2023/04/21 06:34:49;;;;;;;12.38;9.50;;;8.00;95.30;;;;;;5118946;27;20176;-68
2023/04/21 06:37:23;;;;;;;10.63;8.73;;;8.20;94.50;;;;;;5123629;27;20196;-68
2023/04/21 06:39:59;;;;;;;12.98;9.82;;;8.20;93.90;;;;;;5127919;27;20215;-68
2023/04/21 06:42:29;;;;;;;12.07;10.85;;;8.30;93.70;;;;;;5118682;27;20571;-68
2023/04/21 06:44:56;;;;;;;13.57;10.23;;;8.50;93.90;;;;;;5130958;27;20187;-68
2023/04/21 06:47:35;;;;;;;12.85;10.60;;;8.60;94.30;;;;;;5131329;27;20342;-68
2023/04/21 06:50:07;;;;;;;13.43;11.35;;;8.80;93.70;;;;;;5132649;27;20191;-68
2023/04/21 06:52:36;;;;;;;13.75;10.52;;;8.90;93.20;;;;;;5132478;27;20192;-68
2023/04/21 06:55:06;;;;;;;12.73;10.35;;;8.90;92.80;;;;;;5131898;28;20184;-68
2023/04/21 06:57:43;;;;;;;12.48;10.50;;;9.00;93.20;;;;;;5131452;28;20191;-68
2023/04/21 07:00:17;;;;;;;13.50;12.10;;;9.10;93.10;;;;;;5132615;28;20179;-68
2023/04/21 07:02:46;;;;;;;13.10;10.63;;;9.30;94.00;;;;;;5132772;28;20188;-69
2023/04/21 07:05:24;;;;;;;13.25;10.52;;;9.60;94.40;;;;;;5132743;28;20264;-68
2023/04/21 07:07:58;;;;;;;13.98;11.20;;;9.80;94.10;;;;;;5132805;28;20191;-68
2023/04/21 07:10:26;;;;;;;13.65;11.48;;;10.10;92.80;;;;;;5132538;28;20191;-68
2023/04/21 07:12:57;;;;;;;10.73;9.63;;;10.30;92.20;;;;;;5123674;28;20712;-69
2023/04/21 07:15:28;;;;;;;13.10;9.40;;;10.50;91.90;;;;;;5129843;28;20219;-69
2023/04/21 07:18:00;;;;;;;12.20;10.10;;;10.80;91.90;;;;;;5123710;28;20191;-68
2023/04/21 07:20:38;;;;;;;10.95;8.80;;;11.30;91.40;;;;;;5128078;28;20231;-68
2023/04/21 07:23:13;;;;;;;11.13;8.85;;;11.80;90.80;;;;;;5124906;28;20576;-69
2023/04/21 07:26:00;;;;;;;10.70;8.52;;;12.20;88.30;;;;;;5131420;28;20299;-69
2023/04/21 07:28:32;;;;;;;10.50;8.80;;;12.50;84.00;;;;;;5121984;28;20274;-68
2023/04/21 07:31:10;;;;;;;10.50;8.90;;;12.70;81.00;;;;;;5128460;28;20513;-68
2023/04/21 07:33:43;;;;;;;8.93;8.00;;;12.90;79.60;;;;;;5127373;28;20475;-68
2023/04/21 07:36:10;;;;;;;10.00;8.97;;;13.30;79.70;;;;;;5132103;28;20449;-68
2023/04/21 07:38:42;;;;;;;11.20;9.53;;;13.70;77.70;;;;;;5127512;28;20927;-68
2023/04/21 07:41:14;;;;;;;10.53;8.57;;;14.00;74.30;;;;;;5127719;28;20536;-69
2023/04/21 07:43:45;;;;;;;12.40;9.50;;;14.20;73.00;;;;;;5124113;28;20430;-69
2023/04/21 07:46:13;;;;;;;10.30;9.20;;;14.60;72.20;;;;;;5126773;28;20921;-68
2023/04/21 07:48:40;;;;;;;10.10;9.07;;;14.80;69.60;;;;;;5127073;28;20444;-68
2023/04/21 07:51:12;;;;;;;8.80;7.70;;;15.10;66.70;;;;;;5126022;28;20433;-69
2023/04/21 07:53:48;;;;;;;9.13;8.23;;;15.30;67.40;;;;;;5126723;28;20481;-69
2023/04/21 07:56:25;;;;;;;11.83;9.13;;;15.70;63.30;;;;;;5125224;28;20517;-68
2023/04/21 07:58:58;;;;;;;10.80;9.10;;;15.80;62.50;;;;;;5127197;28;20789;-68
2023/04/21 08:01:34;;;;;;;9.47;8.47;;;15.90;60.70;;;;;;5127439;28;20437;-68
2023/04/21 08:04:06;;;;;;;9.07;8.13;;;16.00;59.90;;;;;;5126450;27;20482;-68
2023/04/21 08:06:38;;;;;;;9.27;8.07;;;16.00;60.40;;;;;;5131003;27;20491;-68
2023/04/21 08:09:09;;;;;;;9.13;8.13;;;16.20;59.60;;;;;;5127636;27;20872;-68
2023/04/21 08:11:56;;;;;;;10.30;8.33;;;16.30;59.80;;;;;;5128578;27;20472;-69
2023/04/21 08:14:28;;;;;;;9.23;8.27;;;16.40;59.30;;;;;;5124915;27;20451;-68
2023/04/21 08:16:56;;;;;;;10.47;7.90;;;16.60;58.70;;;;;;5131662;27;20888;-68
2023/04/21 08:19:29;;;;;;;10.97;7.83;;;16.90;59.20;;;;;;5127186;27;20475;-68
2023/04/21 08:22:01;;;;;;;9.23;7.83;;;17.40;59.40;;;;;;5126572;27;20515;-69
2023/04/21 08:24:35;;;;;;;9.37;8.33;;;18.00;58.00;;;;;;5128066;27;20437;-68
2023/04/21 08:27:13;;;;;;;10.10;7.43;;;18.40;55.10;;;;;;5127339;27;20878;-68
2023/04/21 08:29:45;;;;;;;7.93;6.53;;;18.40;53.20;;;;;;5128045;27;20438;-69
2023/04/21 08:32:12;;;;;;;7.40;6.70;;;18.40;51.90;;;;;;5130549;27;20433;-69
2023/04/21 08:34:52;;;;;;;7.50;6.40;;;18.60;53.40;;;;;;5128716;27;20437;-69
2023/04/21 08:37:21;;;;;;;7.07;6.20;;;18.90;53.40;;;;;;5130371;27;20460;-69
2023/04/21 08:39:53;;;;;;;10.10;6.40;;;19.20;53.30;;;;;;5127629;27;20524;-69
2023/04/21 08:42:20;;;;;;;9.50;6.73;;;19.40;52.10;;;;;;5134393;27;20444;-69
2023/04/21 08:44:51;;;;;;;7.40;6.70;;;19.50;52.20;;;;;;5127904;27;20516;-69
2023/04/21 08:47:20;;;;;;;7.83;6.00;;;19.80;52.00;;;;;;5129998;27;20492;-69
2023/04/21 08:49:50;;;;;;;8.50;6.50;;;20.00;51.10;;;;;;5131608;27;20855;-69
2023/04/21 08:52:21;;;;;;;8.10;6.10;;;20.10;49.60;;;;;;5134149;27;20433;-69
2023/04/21 08:54:52;;;;;;;7.93;6.83;;;20.30;49.80;;;;;;5123869;27;20524;-69
2023/04/21 08:57:24;;;;;;;8.50;6.80;;;20.60;48.60;;;;;;5129956;27;20509;-69
2023/04/21 08:59:51;;;;;;;8.00;6.70;;;20.80;47.70;;;;;;5131447;27;21015;-69
2023/04/21 09:02:22;;;;;;;6.97;6.23;;;20.90;47.00;;;;;;5134303;27;20433;-69
2023/04/21 09:04:51;;;;;;;7.13;5.60;;;21.00;45.70;;;;;;5128183;27;20473;-69
2023/04/21 09:07:32;;;;;;;7.87;6.20;;;21.00;44.90;;;;;;5133940;27;20480;-69
2023/04/21 09:10:00;;;;;;;6.57;5.20;;;21.10;45.70;;;;;;5126227;27;20437;-69
2023/04/21 09:12:32;;;;;;;6.80;5.57;;;21.10;44.60;;;;;;5129755;27;20497;-68
2023/04/21 09:15:13;;;;;;;4.23;3.60;;;21.10;44.80;;;;;;5126601;27;20461;-68
2023/04/21 09:17:44;;;;;;;3.70;2.90;;;21.20;43.20;;;;;;5130775;27;20521;-69
2023/04/21 09:20:16;;;;;;;7.30;4.40;;;21.30;43.90;;;;;;5130954;27;20480;-69
2023/04/21 09:22:50;;;;;;;6.03;4.63;;;21.60;46.20;;;;;;5133802;27;20950;-69
2023/04/21 09:25:24;;;;;;;8.50;4.13;;;21.90;46.10;;;;;;5124686;27;20441;-69
2023/04/21 09:27:59;;;;;;;5.27;4.47;;;22.20;44.10;;;;;;5129211;27;20512;-69
2023/04/21 09:30:39;;;;;;;5.40;4.10;;;22.40;43.20;;;;;;5127814;27;20437;-69
2023/04/21 09:33:14;;;;;;;5.70;4.13;;;22.60;42.70;;;;;;5130062;27;20510;-68
2023/04/21 09:35:53;;;;;;;4.47;3.97;;;22.90;42.30;;;;;;5128426;27;20798;-69
2023/04/21 09:38:25;;;;;;;7.03;4.27;;;23.00;41.40;;;;;;5130891;27;20468;-68
2023/04/21 09:40:59;;;;;;;5.00;3.83;;;23.20;41.00;;;;;;5132296;27;20437;-69
2023/04/21 09:43:31;;;;;;;5.40;4.80;;;23.20;41.10;;;;;;5130355;27;20469;-69
2023/04/21 09:46:05;;;;;;;4.80;4.20;;;23.00;39.90;;;;;;5132892;27;20437;-69
2023/04/21 09:48:35;;;;;;;5.80;4.30;;;22.90;41.40;;;;;;5128834;27;20450;-69
2023/04/21 09:51:02;;;;;;;6.23;4.83;;;22.90;41.00;;;;;;5129541;27;20474;-69
2023/04/21 09:53:33;;;;;;;8.53;4.47;;;22.80;40.80;;;;;;5130315;27;20456;-69
2023/04/21 09:56:04;;;;;;;4.73;4.10;;;22.90;42.80;;;;;;5133365;27;20437;-69
2023/04/21 09:58:38;;;;;;;5.07;4.53;;;23.10;41.70;;;;;;5125078;27;20442;-69
2023/04/21 10:01:05;;;;;;;6.30;5.47;;;23.20;41.80;;;;;;5125307;27;20465;-69
2023/04/21 10:03:33;;;;;;;4.63;3.77;;;23.20;40.10;;;;;;5123336;27;20465;-69
2023/04/21 10:06:05;;;;;;;5.53;4.20;;;23.10;42.00;;;;;;5133099;27;20461;-68
2023/04/21 10:08:33;;;;;;;4.90;4.00;;;23.10;42.10;;;;;;5124793;27;20528;-69
2023/04/21 10:11:03;;;;;;;5.30;4.50;;;23.10;42.40;;;;;;5128638;27;20520;-69
2023/04/21 10:13:31;;;;;;;5.10;3.70;;;23.10;41.70;;;;;;5127118;27;20441;-69
2023/04/21 10:16:02;;;;;;;4.53;3.43;;;23.10;42.10;;;;;;5131897;27;20514;-69
2023/04/21 10:18:30;;;;;;;4.77;3.60;;;23.00;43.20;;;;;;5130275;27;20480;-68
2023/04/21 10:21:01;;;;;;;5.00;4.40;;;23.00;43.10;;;;;;5128714;27;20465;-69
2023/04/21 10:23:36;;;;;;;5.27;3.80;;;22.90;41.30;;;;;;5122769;27;20446;-69
2023/04/21 10:26:09;;;;;;;5.30;3.73;;;22.70;41.50;;;;;;5128400;27;20493;-69
2023/04/21 10:28:48;;;;;;;5.90;4.80;;;22.60;42.00;;;;;;5123926;27;20469;-69
2023/04/21 10:31:35;;;;;;;5.57;3.50;;;22.40;44.50;;;;;;5125394;27;20495;-69
2023/04/21 10:34:29;;;;;;;4.03;3.07;;;22.30;44.20;;;;;;5128168;27;20437;-68
2023/04/21 10:37:15;;;;;;;3.77;2.70;;;22.30;44.40;;;;;;5124264;27;20452;-69
2023/04/21 10:39:55;;;;;;;3.90;3.40;;;22.20;43.60;;;;;;5128884;27;20433;-69
2023/04/21 10:42:35;;;;;;;5.37;2.70;;;22.20;42.20;;;;;;5125092;27;20436;-69
2023/04/21 10:45:12;;;;;;;4.37;2.10;;;21.90;42.80;;;;;;5126684;27;20445;-68
2023/04/21 10:47:47;;;;;;;3.10;2.27;;;21.90;44.10;;;;;;5127690;27;20519;-69
2023/04/21 10:50:20;;;;;;;4.00;2.10;;;21.90;45.40;;;;;;5128110;27;20520;-69
2023/04/21 10:52:54;;;;;;;4.10;2.33;;;21.90;43.10;;;;;;5127545;27;20927;-70
2023/04/21 10:55:30;;;;;;;3.93;2.00;;;21.90;44.20;;;;;;5120274;27;20901;-69
2023/04/21 10:58:02;;;;;;;3.20;2.10;;;22.00;45.50;;;;;;5128901;28;20451;-69
2023/04/21 11:00:29;;;;;;;2.90;2.00;;;22.00;46.10;;;;;;5121227;28;20466;-69
2023/04/21 11:02:58;;;;;;;3.13;1.97;;;22.10;46.20;;;;;;5123769;28;20441;-69
2023/04/21 11:05:35;;;;;;;2.77;1.47;;;22.00;44.90;;;;;;5132241;28;20467;-69
2023/04/21 11:08:13;;;;;;;3.90;1.40;;;22.00;44.20;;;;;;5128594;28;20961;-69
2023/04/21 11:10:49;;;;;;;2.53;1.50;;;22.10;44.10;;;;;;5123522;28;20437;-69
2023/04/21 11:13:20;;;;;;;3.70;1.80;;;22.10;45.50;;;;;;5128385;28;20523;-69
2023/04/21 11:15:58;;;;;;;2.70;1.43;;;22.10;44.50;;;;;;5131634;28;20525;-68
2023/04/21 11:18:49;;;;;;;2.20;1.33;;;22.10;45.20;;;;;;5127836;28;20768;-69
2023/04/21 11:21:20;;;;;;;2.93;1.60;;;22.10;44.40;;;;;;5125298;28;20501;-69
2023/04/21 11:23:56;;;;;;;2.80;1.67;;;22.00;43.70;;;;;;5126728;28;20429;-69
2023/04/21 11:26:34;;;;;;;2.20;1.30;;;22.10;45.10;;;;;;5121619;28;20433;-68
2023/04/21 11:29:04;;;;;;;3.13;1.20;;;22.10;43.20;;;;;;5123495;28;20461;-69
2023/04/21 11:31:32;;;;;;;3.33;1.40;;;22.20;44.70;;;;;;5123926;28;20851;-69
2023/04/21 11:34:00;;;;;;;2.30;1.37;;;22.20;43.80;;;;;;5124603;28;20476;-69
2023/04/21 11:36:29;;;;;;;3.80;1.40;;;22.20;44.70;;;;;;5126788;28;20516;-69
2023/04/21 11:38:57;;;;;;;2.20;1.20;;;22.20;43.80;;;;;;5125069;27;20502;-69
2023/04/21 11:41:24;;;;;;;3.47;1.60;;;22.20;43.30;;;;;;5132209;27;20927;-69
2023/04/21 11:43:54;;;;;;;2.63;1.70;;;22.20;43.60;;;;;;5129613;27;20516;-68
2023/04/21 11:46:26;;;;;;;2.43;1.60;;;22.20;45.30;;;;;;5128737;27;20489;-69
2023/04/21 11:49:01;;;;;;;3.70;1.90;;;22.20;43.70;;;;;;5130332;27;20790;-69
2023/04/21 11:51:50;;;;;;;3.20;1.90;;;22.30;45.30;;;;;;5130428;27;20800;-69
2023/04/21 11:54:20;;;;;;;3.57;1.43;;;22.40;44.60;;;;;;5125331;27;20774;-70
2023/04/21 11:56:56;;;;;;;2.50;1.53;;;22.40;45.20;;;;;;5127243;27;20437;-70
2023/04/21 11:59:25;;;;;;;3.67;1.97;;;22.50;44.50;;;;;;5134610;27;20505;-69
2023/04/21 12:01:54;;;;;;;2.60;1.40;;;22.50;43.80;;;;;;5136512;27;20436;-69
2023/04/21 12:04:22;;;;;;;3.30;1.63;;;22.60;43.50;;;;;;5136650;27;20434;-69
2023/04/21 12:06:57;;;;;;;2.23;1.30;;;22.60;43.30;;;;;;5136830;27;20478;-69
2023/04/21 12:09:30;;;;;;;2.20;1.33;;;22.60;42.70;;;;;;5136748;27;20472;-68
2023/04/21 12:12:00;;;;;;;2.00;0.97;;;22.60;42.40;;;;;;5136344;27;20437;-69
2023/04/21 12:14:29;;;;;;;2.70;1.47;;;22.70;43.60;;;;;;5136566;27;20435;-69
2023/04/21 12:17:01;;;;;;;2.67;1.33;;;22.70;43.20;;;;;;5136325;27;20490;-69
2023/04/21 12:19:38;;;;;;;3.27;1.20;;;22.80;43.50;;;;;;5136464;27;20444;-69
2023/04/21 12:22:08;;;;;;;2.27;1.30;;;22.80;42.80;;;;;;5136652;27;20520;-69
2023/04/21 12:24:37;;;;;;;2.20;1.13;;;22.80;42.10;;;;;;5136379;27;20521;-69
2023/04/21 12:27:05;;;;;;;2.63;1.40;;;22.80;42.60;;;;;;5135824;27;20477;-69
2023/04/21 12:29:41;;;;;;;2.60;1.60;;;22.80;43.00;;;;;;5136361;27;20849;-69
2023/04/21 12:32:10;;;;;;;2.93;1.23;;;22.80;42.90;;;;;;5136356;27;20501;-69
2023/04/21 12:34:37;;;;;;;2.70;1.43;;;22.90;42.90;;;;;;5136252;27;20425;-69
2023/04/21 12:37:09;;;;;;;2.20;1.40;;;22.90;43.50;;;;;;5136046;27;20450;-69
2023/04/21 12:39:38;;;;;;;2.10;1.20;;;22.90;42.50;;;;;;5135954;27;20498;-69
2023/04/21 12:42:15;;;;;;;2.70;1.70;;;22.80;41.20;;;;;;5135998;27;20437;-69
2023/04/21 12:44:46;;;;;;;5.00;1.70;;;22.80;41.20;;;;;;5135861;27;20441;-69
2023/04/21 12:47:17;;;;;;;2.33;1.30;;;22.70;41.00;;;;;;5135673;27;20504;-69
2023/04/21 12:49:44;;;;;;;3.77;1.20;;;22.70;41.30;;;;;;5135951;27;20473;-69
2023/04/21 12:52:11;;;;;;;2.40;1.33;;;22.60;41.00;;;;;;5134913;27;20907;-69
2023/04/21 12:54:38;;;;;;;2.90;1.63;;;22.70;42.30;;;;;;5135604;27;20465;-69
2023/04/21 12:57:07;;;;;;;3.87;1.60;;;22.80;42.60;;;;;;5135813;27;20473;-69
2023/04/21 12:59:34;;;;;;;3.00;1.80;;;22.80;43.30;;;;;;5136100;27;20473;-69
2023/04/21 13:02:01;;;;;;;3.30;1.20;;;22.90;43.10;;;;;;5136064;27;20448;-69
2023/04/21 13:04:30;;;;;;;2.40;1.50;;;22.90;43.10;;;;;;5135454;27;20480;-69
2023/04/21 13:06:58;;;;;;;2.80;1.23;;;22.90;43.90;;;;;;5135724;27;20829;-69
2023/04/21 13:09:25;;;;;;;2.53;1.37;;;23.00;43.00;;;;;;5135952;27;20554;-69